Time;durP1;ratioP1;P1;durP2;ratioP2;P2;SDS_P1;SDS_P2;PMS_P1;PMS_P2;Temp;Humidity;BMP_temperature;BMP_pressure;BME280_temperature;BME280_humidity;BME280_pressure;Samples;Min_cycle;Max_cycle;Signal;HPM_P1;HPM_P2
2023/08/02 00:00:22;;;;;;;2.70;1.48;;;14.70;99.90;;;;;;5093350;28;20641;-59
2023/08/02 00:02:47;;;;;;;2.13;1.70;;;14.70;99.90;;;;;;5112345;28;20026;-60
2023/08/02 00:05:13;;;;;;;3.85;1.58;;;14.80;99.90;;;;;;5091695;28;20101;-60
2023/08/02 00:07:38;;;;;;;2.45;1.70;;;14.70;99.90;;;;;;5112752;28;20035;-60
2023/08/02 00:10:04;;;;;;;2.20;1.60;;;14.70;99.90;;;;;;5091238;28;20156;-60
2023/08/02 00:12:30;;;;;;;2.63;1.63;;;14.80;99.90;;;;;;5110517;28;20024;-60
2023/08/02 00:14:55;;;;;;;2.63;2.00;;;14.70;99.90;;;;;;5093030;28;20472;-60
2023/08/02 00:17:21;;;;;;;3.60;1.73;;;14.70;99.90;;;;;;5091015;28;20142;-60
2023/08/02 00:19:46;;;;;;;2.38;1.75;;;14.70;99.90;;;;;;5111251;28;20522;-60
2023/08/02 00:22:11;;;;;;;2.85;1.70;;;14.70;99.90;;;;;;5090688;28;20047;-59
2023/08/02 00:24:37;;;;;;;3.65;1.75;;;14.60;99.90;;;;;;5111526;28;20110;-60
2023/08/02 00:27:03;;;;;;;3.53;2.05;;;14.60;99.90;;;;;;5090466;28;20503;-61
2023/08/02 00:29:28;;;;;;;2.05;1.50;;;14.50;99.90;;;;;;5110005;28;20061;-60
2023/08/02 00:31:54;;;;;;;3.65;1.75;;;14.50;99.90;;;;;;5089973;28;20442;-60
2023/08/02 00:34:19;;;;;;;4.45;1.90;;;14.50;99.90;;;;;;5098800;28;20059;-60
2023/08/02 00:36:45;;;;;;;3.85;1.67;;;14.40;99.90;;;;;;5094241;28;20395;-60
2023/08/02 00:39:10;;;;;;;4.35;1.83;;;14.40;99.90;;;;;;5111099;28;20065;-60
2023/08/02 00:41:36;;;;;;;2.40;1.50;;;14.40;99.90;;;;;;5090252;28;20028;-60
2023/08/02 00:44:01;;;;;;;4.43;1.40;;;14.40;99.90;;;;;;5111170;28;20035;-60
2023/08/02 00:46:27;;;;;;;2.33;1.60;;;14.40;99.90;;;;;;5089753;28;20111;-61
2023/08/02 00:48:52;;;;;;;1.63;1.52;;;14.50;99.90;;;;;;5111108;28;20031;-61
2023/08/02 00:51:19;;;;;;;3.75;1.70;;;14.50;99.90;;;;;;5099941;28;20104;-60
2023/08/02 00:53:46;;;;;;;2.30;2.00;;;14.50;99.90;;;;;;5091136;28;20634;-60
2023/08/02 00:56:15;;;;;;;3.33;1.80;;;14.60;99.90;;;;;;5107838;28;20056;-64
2023/08/02 00:58:41;;;;;;;4.38;1.67;;;14.60;99.90;;;;;;5091440;28;20057;-63
2023/08/02 01:01:07;;;;;;;2.75;1.65;;;14.60;99.90;;;;;;5108778;28;20034;-61
2023/08/02 01:03:37;;;;;;;2.70;1.63;;;14.60;99.90;;;;;;5091683;28;20026;-60
2023/08/02 01:06:35;;;;;;;4.07;1.95;;;14.60;99.90;;;;;;5109154;28;20032;-60
2023/08/02 01:09:11;;;;;;;3.08;1.83;;;14.60;99.90;;;;;;5070939;28;20021;-60
2023/08/02 01:11:51;;;;;;;1.80;1.30;;;14.50;99.90;;;;;;5094035;28;20035;-60
2023/08/02 01:14:20;;;;;;;4.70;1.90;;;14.50;99.90;;;;;;5069600;28;20048;-61
2023/08/02 01:16:48;;;;;;;2.47;1.60;;;14.50;99.90;;;;;;5095041;28;20031;-60
2023/08/02 01:19:19;;;;;;;5.38;1.98;;;14.50;99.90;;;;;;5110848;28;20027;-60
2023/08/02 01:21:44;;;;;;;1.70;1.58;;;14.50;99.90;;;;;;5082304;28;20032;-60
2023/08/02 01:24:10;;;;;;;3.38;1.92;;;14.50;99.90;;;;;;5110436;28;20028;-60
2023/08/02 01:26:40;;;;;;;7.80;1.98;;;14.50;99.90;;;;;;5089367;28;20047;-60
2023/08/02 01:29:14;;;;;;;1.95;1.70;;;14.50;99.90;;;;;;5070185;28;20029;-60
2023/08/02 01:31:40;;;;;;;2.47;1.50;;;14.40;99.90;;;;;;5081459;28;20082;-60
2023/08/02 01:34:06;;;;;;;3.25;1.70;;;14.40;99.90;;;;;;5099120;28;20039;-60
2023/08/02 01:36:32;;;;;;;2.22;1.80;;;14.40;99.90;;;;;;5100642;28;20027;-60
2023/08/02 01:38:58;;;;;;;3.42;1.48;;;14.40;99.90;;;;;;5090935;28;20027;-60
2023/08/02 01:41:23;;;;;;;3.90;2.33;;;14.40;99.90;;;;;;5108303;28;20032;-60
2023/08/02 01:43:49;;;;;;;3.17;1.92;;;14.40;99.90;;;;;;5090738;28;20081;-60
2023/08/02 01:46:14;;;;;;;3.70;1.77;;;14.50;99.90;;;;;;5107986;28;20114;-60
2023/08/02 01:48:40;;;;;;;3.92;2.05;;;14.50;99.90;;;;;;5090795;28;20020;-60
2023/08/02 01:51:05;;;;;;;2.45;2.03;;;14.60;99.90;;;;;;5107700;28;20471;-60
2023/08/02 01:53:31;;;;;;;5.03;2.40;;;14.60;99.90;;;;;;5090641;28;20502;-60
2023/08/02 01:55:56;;;;;;;3.67;1.40;;;14.60;99.90;;;;;;5107969;28;20034;-60
2023/08/02 01:58:22;;;;;;;2.40;1.85;;;14.60;99.90;;;;;;5110570;28;20246;-60
2023/08/02 02:00:47;;;;;;;2.88;1.55;;;14.70;99.90;;;;;;5094387;28;20544;-60
2023/08/02 02:03:13;;;;;;;1.65;1.55;;;14.70;99.90;;;;;;5110468;28;20495;-60
2023/08/02 02:05:38;;;;;;;4.60;2.50;;;14.70;99.90;;;;;;5092153;28;20039;-60
2023/08/02 02:08:04;;;;;;;3.22;1.70;;;14.70;99.90;;;;;;5108812;28;20019;-60
2023/08/02 02:10:29;;;;;;;2.53;2.15;;;14.70;99.90;;;;;;5091566;28;20026;-60
2023/08/02 02:12:55;;;;;;;3.17;2.00;;;14.70;99.90;;;;;;5110486;28;20023;-60
2023/08/02 02:15:20;;;;;;;5.03;2.10;;;14.80;99.90;;;;;;5090298;28;20476;-60
2023/08/02 02:17:46;;;;;;;3.35;2.10;;;14.80;99.90;;;;;;5110253;28;20019;-60
2023/08/02 02:20:12;;;;;;;5.22;1.98;;;14.80;99.90;;;;;;5089049;28;20100;-59
2023/08/02 02:22:38;;;;;;;4.22;1.77;;;14.80;99.90;;;;;;5110157;28;20122;-60
2023/08/02 02:25:04;;;;;;;4.85;2.22;;;14.90;99.90;;;;;;5089869;28;20709;-60
2023/08/02 02:27:29;;;;;;;2.30;1.70;;;14.80;99.90;;;;;;5107460;28;20091;-60
2023/08/02 02:29:55;;;;;;;4.90;1.83;;;14.90;99.90;;;;;;5094563;28;20036;-60
2023/08/02 02:32:20;;;;;;;3.78;1.70;;;14.90;99.90;;;;;;5089382;28;20047;-60
2023/08/02 02:34:46;;;;;;;2.72;1.70;;;14.90;99.90;;;;;;5103394;28;20024;-60
2023/08/02 02:37:11;;;;;;;2.25;1.77;;;14.90;99.90;;;;;;5088080;28;20408;-60
2023/08/02 02:39:37;;;;;;;4.15;2.30;;;14.90;99.90;;;;;;5109141;28;20028;-60
2023/08/02 02:42:02;;;;;;;5.03;1.88;;;15.00;99.90;;;;;;5088169;28;20039;-60
2023/08/02 02:44:41;;;;;;;3.95;1.95;;;15.00;99.90;;;;;;5107284;28;20430;-59
2023/08/02 02:47:07;;;;;;;3.70;1.80;;;15.00;99.90;;;;;;5087451;28;20166;-59
2023/08/02 02:49:32;;;;;;;3.80;1.80;;;15.00;99.90;;;;;;5108879;28;20110;-59
2023/08/02 02:51:58;;;;;;;4.60;1.88;;;15.10;99.90;;;;;;5087763;28;20043;-60
2023/08/02 02:54:23;;;;;;;3.60;1.83;;;15.00;99.90;;;;;;5108597;28;20165;-60
2023/08/02 02:56:49;;;;;;;3.70;2.17;;;15.00;99.90;;;;;;5087594;28;20035;-60
2023/08/02 02:59:14;;;;;;;2.72;2.20;;;15.10;99.90;;;;;;5108612;28;20045;-60
2023/08/02 03:01:39;;;;;;;3.30;2.28;;;15.10;99.90;;;;;;5087935;28;20032;-60
2023/08/02 03:04:05;;;;;;;3.65;2.45;;;15.10;99.90;;;;;;5108271;28;20107;-60
2023/08/02 03:06:30;;;;;;;4.40;2.40;;;15.10;99.90;;;;;;5086296;28;20404;-60
2023/08/02 03:08:56;;;;;;;5.05;2.10;;;15.10;99.90;;;;;;5107176;28;20059;-59
2023/08/02 03:11:21;;;;;;;2.45;2.10;;;15.20;99.90;;;;;;5098022;28;20529;-59
2023/08/02 03:13:47;;;;;;;3.67;2.40;;;15.20;99.90;;;;;;5089070;28;20074;-60
2023/08/02 03:16:12;;;;;;;3.05;2.00;;;15.20;99.90;;;;;;5106273;28;20063;-60
2023/08/02 03:18:38;;;;;;;6.47;2.50;;;15.20;99.90;;;;;;5089294;28;20035;-59
2023/08/02 03:21:03;;;;;;;2.30;1.80;;;15.20;99.90;;;;;;5106288;28;20402;-59
2023/08/02 03:23:29;;;;;;;3.65;2.42;;;15.20;99.90;;;;;;5089083;28;20053;-60
2023/08/02 03:25:54;;;;;;;3.53;2.13;;;15.30;99.90;;;;;;5106378;28;20040;-60
2023/08/02 03:28:20;;;;;;;3.15;2.25;;;15.20;99.90;;;;;;5107736;28;20156;-60
2023/08/02 03:30:46;;;;;;;4.07;2.38;;;15.20;99.90;;;;;;5092108;28;20088;-59
2023/08/02 03:33:12;;;;;;;9.50;3.00;;;15.30;99.90;;;;;;5108511;28;20106;-56
2023/08/02 03:35:37;;;;;;;3.55;2.33;;;15.30;99.90;;;;;;5083952;28;20115;-51
2023/08/02 03:38:03;;;;;;;3.75;2.00;;;15.20;99.90;;;;;;5108790;28;20027;-52
2023/08/02 03:40:28;;;;;;;2.85;1.98;;;15.20;99.90;;;;;;5090250;28;20031;-54
2023/08/02 03:42:54;;;;;;;2.80;2.15;;;15.20;99.90;;;;;;5108886;28;20035;-53
2023/08/02 03:45:19;;;;;;;3.63;2.15;;;15.20;99.90;;;;;;5089196;28;20028;-63
2023/08/02 03:47:45;;;;;;;2.50;1.98;;;15.20;99.90;;;;;;5107130;28;20092;-63
2023/08/02 03:50:10;;;;;;;4.57;2.33;;;15.20;99.90;;;;;;5087443;28;20442;-65
2023/08/02 03:52:36;;;;;;;4.88;2.60;;;15.20;99.90;;;;;;5108819;28;20039;-64
2023/08/02 03:55:01;;;;;;;6.13;2.17;;;15.20;99.90;;;;;;5088725;28;20040;-64
2023/08/02 03:57:27;;;;;;;3.13;2.05;;;15.20;99.90;;;;;;5086253;28;20024;-64
2023/08/02 03:59:52;;;;;;;3.78;2.08;;;15.20;99.90;;;;;;5108148;28;20130;-64
2023/08/02 04:02:18;;;;;;;3.28;2.30;;;15.30;99.90;;;;;;5087044;28;20044;-64
2023/08/02 04:04:43;;;;;;;4.28;2.30;;;15.30;99.90;;;;;;5107744;28;20038;-64
2023/08/02 04:07:09;;;;;;;4.43;2.22;;;15.40;99.90;;;;;;5086749;28;20031;-64
2023/08/02 04:09:35;;;;;;;3.13;2.28;;;15.50;99.90;;;;;;5107995;28;20020;-64
2023/08/02 04:12:00;;;;;;;2.80;2.10;;;15.50;99.90;;;;;;5086960;28;20036;-64
2023/08/02 04:14:26;;;;;;;4.05;2.05;;;15.70;99.90;;;;;;5107551;28;20027;-64
2023/08/02 04:16:51;;;;;;;2.92;1.95;;;15.90;99.90;;;;;;5087164;28;20035;-64
2023/08/02 04:19:17;;;;;;;1.83;1.67;;;16.20;99.90;;;;;;5107685;28;20089;-64
2023/08/02 04:21:42;;;;;;;3.92;2.00;;;16.50;99.90;;;;;;5086893;28;20020;-64
2023/08/02 04:24:08;;;;;;;4.50;2.67;;;17.00;99.90;;;;;;5107466;28;20027;-64
2023/08/02 04:26:33;;;;;;;2.83;2.50;;;17.40;99.90;;;;;;5086752;28;20036;-64
2023/08/02 04:28:59;;;;;;;3.58;1.85;;;17.60;99.90;;;;;;5109261;28;20039;-65
2023/08/02 04:31:24;;;;;;;1.83;1.73;;;17.60;99.90;;;;;;5100981;28;20044;-64
2023/08/02 04:33:50;;;;;;;2.63;1.90;;;17.50;99.70;;;;;;5093040;28;20032;-64
2023/08/02 04:36:15;;;;;;;3.72;2.35;;;17.40;99.90;;;;;;5110127;28;20050;-64
2023/08/02 04:38:40;;;;;;;4.28;2.22;;;17.30;99.20;;;;;;5092241;28;20111;-64
2023/08/02 04:41:06;;;;;;;2.63;2.00;;;17.30;99.70;;;;;;5108991;28;20027;-64
2023/08/02 04:43:31;;;;;;;2.03;1.80;;;17.40;99.90;;;;;;5092071;28;20062;-64
2023/08/02 04:45:57;;;;;;;5.95;2.17;;;17.50;99.70;;;;;;5109131;28;20027;-64
2023/08/02 04:48:22;;;;;;;3.25;2.03;;;17.90;98.70;;;;;;5111908;28;20015;-64
2023/08/02 04:50:49;;;;;;;2.28;1.90;;;18.50;95.60;;;;;;5095581;28;20582;-64
2023/08/02 04:53:14;;;;;;;4.43;2.03;;;18.60;96.20;;;;;;5111865;28;20034;-64
2023/08/02 04:55:44;;;;;;;3.70;1.85;;;18.60;95.60;;;;;;5094603;28;20436;-64
2023/08/02 04:58:10;;;;;;;4.40;1.70;;;18.50;95.70;;;;;;5111626;28;20020;-64
2023/08/02 05:00:35;;;;;;;3.10;2.13;;;18.30;94.40;;;;;;5092460;28;20050;-64
2023/08/02 05:03:01;;;;;;;2.38;1.77;;;18.20;94.30;;;;;;5111832;28;20492;-64
2023/08/02 05:05:26;;;;;;;6.35;2.17;;;18.00;94.90;;;;;;5092167;28;20877;-64
2023/08/02 05:07:52;;;;;;;3.33;2.10;;;17.80;94.90;;;;;;5111487;28;20023;-64
2023/08/02 05:10:17;;;;;;;3.08;2.10;;;17.70;95.50;;;;;;5091350;28;20067;-64
2023/08/02 05:12:43;;;;;;;3.92;2.28;;;17.70;96.00;;;;;;5111654;28;20273;-64
2023/08/02 05:15:08;;;;;;;3.83;2.00;;;17.60;95.80;;;;;;5089287;28;20028;-63
2023/08/02 05:17:34;;;;;;;3.92;2.22;;;17.60;96.40;;;;;;5111545;28;20012;-64
2023/08/02 05:19:59;;;;;;;3.35;2.33;;;17.50;96.30;;;;;;5091383;28;20036;-64
2023/08/02 05:22:25;;;;;;;3.50;1.75;;;17.40;96.10;;;;;;5089574;28;20031;-64
2023/08/02 05:24:54;;;;;;;4.15;2.15;;;17.40;96.60;;;;;;5109016;28;20371;-64
2023/08/02 05:27:20;;;;;;;5.63;2.00;;;17.40;96.70;;;;;;5089151;28;20055;-64
2023/08/02 05:29:45;;;;;;;4.22;2.35;;;17.30;96.90;;;;;;5106246;28;20500;-64
2023/08/02 05:32:11;;;;;;;2.70;2.10;;;17.30;97.10;;;;;;5088809;28;20053;-64
2023/08/02 05:34:37;;;;;;;4.38;2.17;;;17.30;96.40;;;;;;5104802;28;20370;-63
2023/08/02 05:37:02;;;;;;;2.58;1.95;;;17.30;96.80;;;;;;5089314;28;20039;-65
2023/08/02 05:39:28;;;;;;;3.55;2.13;;;17.30;97.20;;;;;;5109951;28;20070;-63
2023/08/02 05:41:53;;;;;;;3.17;2.05;;;17.30;97.00;;;;;;5089223;28;20039;-63
2023/08/02 05:44:19;;;;;;;3.95;2.20;;;17.30;97.30;;;;;;5110061;28;20126;-63
2023/08/02 05:46:44;;;;;;;2.97;1.88;;;17.40;97.20;;;;;;5088824;28;20123;-63
2023/08/02 05:49:10;;;;;;;2.97;2.15;;;17.30;97.00;;;;;;5108565;28;20118;-64
2023/08/02 05:51:35;;;;;;;4.65;2.30;;;17.40;96.80;;;;;;5087840;28;20069;-64
2023/08/02 05:54:01;;;;;;;4.25;2.03;;;17.40;96.80;;;;;;5109792;28;20488;-63
2023/08/02 05:56:26;;;;;;;4.97;2.25;;;17.40;97.20;;;;;;5099647;28;20073;-63
2023/08/02 05:58:52;;;;;;;4.55;1.85;;;17.50;96.40;;;;;;5090730;28;20032;-63
2023/08/02 06:01:17;;;;;;;2.38;1.70;;;17.60;96.60;;;;;;5107930;28;20027;-64
2023/08/02 06:03:43;;;;;;;3.70;1.67;;;17.70;96.10;;;;;;5088843;28;20604;-63
2023/08/02 06:06:08;;;;;;;4.88;2.03;;;17.80;95.80;;;;;;5109666;28;20066;-64
2023/08/02 06:08:34;;;;;;;4.35;2.10;;;17.90;95.70;;;;;;5088888;28;20070;-63
2023/08/02 06:11:01;;;;;;;3.03;1.85;;;18.00;95.00;;;;;;5109919;28;20027;-65
2023/08/02 06:13:27;;;;;;;2.78;1.80;;;18.30;94.50;;;;;;5088570;28;20043;-63
2023/08/02 06:15:52;;;;;;;5.55;1.70;;;18.60;93.70;;;;;;5109763;28;20513;-63
2023/08/02 06:18:18;;;;;;;2.65;1.77;;;19.00;91.90;;;;;;5088855;28;20031;-64
2023/08/02 06:20:44;;;;;;;1.80;1.52;;;19.40;91.40;;;;;;5109602;28;20034;-63
2023/08/02 06:23:09;;;;;;;4.28;1.55;;;19.80;90.40;;;;;;5088303;28;20107;-63
2023/08/02 06:25:35;;;;;;;2.33;1.67;;;20.40;85.80;;;;;;5109684;28;20175;-64
2023/08/02 06:28:00;;;;;;;3.58;1.83;;;21.10;84.90;;;;;;5088587;28;20062;-64
2023/08/02 06:30:26;;;;;;;3.10;1.25;;;21.90;81.80;;;;;;5099674;28;20052;-64
2023/08/02 06:32:51;;;;;;;2.78;1.35;;;22.70;77.90;;;;;;5099188;28;20032;-63
2023/08/02 06:35:17;;;;;;;3.33;1.50;;;24.40;75.00;;;;;;5106316;28;20031;-64
2023/08/02 06:37:43;;;;;;;2.22;1.42;;;26.10;69.00;;;;;;5088213;28;20716;-63
2023/08/02 06:40:10;;;;;;;3.33;1.50;;;27.20;64.40;;;;;;5088320;28;20056;-63
2023/08/02 06:42:36;;;;;;;3.55;1.73;;;27.60;58.80;;;;;;5101434;28;20089;-63
2023/08/02 06:45:01;;;;;;;4.03;1.65;;;28.60;56.80;;;;;;5088194;28;20024;-63
2023/08/02 06:47:26;;;;;;;2.10;1.10;;;29.50;45.80;;;;;;5102239;28;20089;-63
2023/08/02 06:49:52;;;;;;;5.32;1.98;;;29.70;50.00;;;;;;5088179;28;20020;-63
2023/08/02 06:52:18;;;;;;;3.55;1.20;;;30.10;47.70;;;;;;5103225;28;20034;-64
2023/08/02 06:54:43;;;;;;;2.25;1.38;;;30.10;44.90;;;;;;5089418;28;20462;-63
2023/08/02 06:57:09;;;;;;;3.55;1.98;;;30.20;43.40;;;;;;5104520;28;20479;-63
2023/08/02 06:59:34;;;;;;;2.90;1.33;;;30.90;34.00;;;;;;5089742;28;20020;-62
2023/08/02 07:02:00;;;;;;;2.22;1.13;;;31.40;39.00;;;;;;5106214;28;20032;-77
2023/08/02 07:04:25;;;;;;;2.53;1.25;;;32.40;37.40;;;;;;5089345;28;20023;-62
2023/08/02 07:06:51;;;;;;;3.17;1.30;;;32.60;35.10;;;;;;5108745;28;20031;-62
2023/08/02 07:09:16;;;;;;;1.80;1.17;;;33.00;32.70;;;;;;5087499;28;20051;-62
2023/08/02 07:11:42;;;;;;;6.95;1.20;;;33.40;31.00;;;;;;5108834;28;20028;-62
2023/08/02 07:14:07;;;;;;;2.97;1.30;;;34.00;29.00;;;;;;5087623;28;20408;-62
2023/08/02 07:16:33;;;;;;;3.50;1.40;;;34.70;27.90;;;;;;5108828;28;20042;-62
2023/08/02 07:19:02;;;;;;;1.77;1.35;;;35.00;22.90;;;;;;5087893;28;20028;-62
2023/08/02 07:21:29;;;;;;;1.52;1.20;;;35.60;24.40;;;;;;5107804;28;20028;-62
2023/08/02 07:23:55;;;;;;;2.22;1.05;;;35.60;19.20;;;;;;5087769;28;20024;-62
2023/08/02 07:26:22;;;;;;;2.80;1.50;;;35.90;21.10;;;;;;5108704;28;20229;-62
2023/08/02 07:28:48;;;;;;;5.78;2.75;;;36.10;19.40;;;;;;5087394;28;20028;-62
2023/08/02 07:31:13;;;;;;;4.28;1.90;;;36.60;19.00;;;;;;5108413;28;20055;-62
2023/08/02 07:33:39;;;;;;;2.35;1.60;;;36.80;17.60;;;;;;5086323;28;20051;-62
2023/08/02 07:36:12;;;;;;;3.53;1.63;;;37.30;16.70;;;;;;5109249;28;20630;-62
2023/08/02 07:38:37;;;;;;;2.08;1.58;;;37.20;11.60;;;;;;5081658;28;20395;-62
2023/08/02 07:41:04;;;;;;;3.28;1.90;;;37.30;14.30;;;;;;5108432;28;20027;-61
2023/08/02 07:43:29;;;;;;;3.63;1.73;;;37.60;13.90;;;;;;5087380;28;20028;-63
2023/08/02 07:45:55;;;;;;;2.90;1.85;;;37.80;11.70;;;;;;5108211;28;20039;-63
2023/08/02 07:48:20;;;;;;;3.25;1.60;;;37.90;12.10;;;;;;5087490;28;20051;-63
2023/08/02 07:50:46;;;;;;;3.65;1.40;;;37.90;9.20;;;;;;5108106;28;20047;-62
2023/08/02 07:53:11;;;;;;;2.55;1.77;;;37.50;10.50;;;;;;5087384;28;20039;-63
2023/08/02 07:55:37;;;;;;;4.90;2.20;;;37.20;10.30;;;;;;5108310;28;20169;-63
2023/08/02 07:58:03;;;;;;;4.35;1.88;;;37.30;8.30;;;;;;5087232;28;20052;-62
2023/08/02 08:00:28;;;;;;;4.40;1.50;;;37.20;8.30;;;;;;5107995;28;20039;-63
2023/08/02 08:02:54;;;;;;;2.92;1.20;;;36.30;10.20;;;;;;5087174;28;20035;-62
2023/08/02 08:05:19;;;;;;;2.63;1.40;;;36.00;10.50;;;;;;5111919;28;20063;-62
2023/08/02 08:07:44;;;;;;;4.70;1.65;;;35.90;10.50;;;;;;5091111;28;20032;-62
2023/08/02 08:10:10;;;;;;;2.20;1.60;;;35.40;11.00;;;;;;5092604;28;20059;-63
2023/08/02 08:12:37;;;;;;;2.88;1.38;;;35.10;11.10;;;;;;5110236;28;20019;-62
2023/08/02 08:15:03;;;;;;;1.45;1.08;;;35.10;11.20;;;;;;5112899;28;20402;-63
2023/08/02 08:17:28;;;;;;;1.95;1.38;;;35.40;10.90;;;;;;5090719;28;20039;-62
2023/08/02 08:19:54;;;;;;;1.67;1.20;;;35.30;10.80;;;;;;5092614;28;20540;-62
2023/08/02 08:22:21;;;;;;;2.53;1.27;;;35.40;10.50;;;;;;5106243;28;20024;-62
2023/08/02 08:24:46;;;;;;;2.17;1.38;;;34.60;10.40;;;;;;5092055;28;20020;-62
2023/08/02 08:27:12;;;;;;;2.50;1.23;;;34.40;10.70;;;;;;5107232;28;22636;-62
2023/08/02 08:29:37;;;;;;;2.30;1.05;;;34.10;11.00;;;;;;5094319;28;20040;-62
2023/08/02 08:32:03;;;;;;;2.55;1.58;;;33.80;9.50;;;;;;5109142;28;20027;-62
2023/08/02 08:34:29;;;;;;;3.53;1.40;;;33.20;10.40;;;;;;5099168;28;20035;-62
2023/08/02 08:36:54;;;;;;;2.25;1.30;;;32.90;11.90;;;;;;5090556;28;20418;-61
2023/08/02 08:39:20;;;;;;;3.53;1.60;;;32.80;12.10;;;;;;5092151;28;20084;-62
2023/08/02 08:41:45;;;;;;;2.75;1.25;;;32.80;12.30;;;;;;5111540;28;20047;-62
2023/08/02 08:44:11;;;;;;;3.08;1.23;;;32.40;12.30;;;;;;5090522;28;20028;-62
2023/08/02 08:46:37;;;;;;;1.70;1.20;;;32.00;12.60;;;;;;5111515;28;20117;-63
2023/08/02 08:49:03;;;;;;;2.58;1.20;;;31.40;12.30;;;;;;5090322;28;20491;-62
2023/08/02 08:51:39;;;;;;;2.25;1.38;;;30.60;13.00;;;;;;5111220;28;20049;-62
2023/08/02 08:54:11;;;;;;;3.45;1.10;;;30.30;13.40;;;;;;5089631;28;20039;-62
2023/08/02 08:56:40;;;;;;;3.10;1.17;;;29.90;13.90;;;;;;5071509;28;20041;-62
2023/08/02 08:59:08;;;;;;;1.25;1.00;;;30.00;14.40;;;;;;5091006;28;20028;-62
2023/08/02 09:01:34;;;;;;;1.67;0.98;;;30.10;14.80;;;;;;5111450;28;20035;-62
2023/08/02 09:04:00;;;;;;;2.28;1.10;;;30.20;15.00;;;;;;5090197;28;20121;-62
2023/08/02 09:06:26;;;;;;;1.30;0.82;;;30.40;15.20;;;;;;5110793;28;20106;-62
2023/08/02 09:08:51;;;;;;;2.67;1.20;;;30.60;14.40;;;;;;5089919;28;20036;-62
2023/08/02 09:11:17;;;;;;;1.98;1.10;;;30.70;15.10;;;;;;5111075;28;20031;-62
2023/08/02 09:13:43;;;;;;;4.03;1.58;;;30.60;13.90;;;;;;5090000;28;20566;-62
2023/08/02 09:16:15;;;;;;;2.30;1.20;;;30.40;13.40;;;;;;5110307;28;20074;-62
2023/08/02 09:18:43;;;;;;;1.90;1.00;;;30.00;13.80;;;;;;5084539;28;20065;-62
2023/08/02 09:21:12;;;;;;;2.85;1.20;;;29.90;14.30;;;;;;5110897;28;20039;-62
2023/08/02 09:23:37;;;;;;;2.13;1.00;;;30.20;14.30;;;;;;5089339;28;20035;-62
2023/08/02 09:26:13;;;;;;;2.53;1.30;;;30.20;13.90;;;;;;5110458;28;20040;-62
2023/08/02 09:28:39;;;;;;;2.67;0.98;;;30.40;13.40;;;;;;5089742;28;20028;-62
2023/08/02 09:31:17;;;;;;;3.00;1.30;;;30.20;13.50;;;;;;5110170;28;20623;-62
2023/08/02 09:33:53;;;;;;;3.75;1.10;;;30.50;13.30;;;;;;5089888;28;20024;-62
2023/08/02 09:36:27;;;;;;;2.63;1.08;;;30.70;12.90;;;;;;5111365;28;20029;-62
2023/08/02 09:38:57;;;;;;;2.38;1.23;;;30.80;13.40;;;;;;5085514;28;20489;-62
2023/08/02 09:41:24;;;;;;;2.60;1.08;;;30.80;13.00;;;;;;5070573;28;20043;-62
2023/08/02 09:43:51;;;;;;;4.07;1.42;;;30.90;13.10;;;;;;5091613;28;20028;-62
2023/08/02 09:46:28;;;;;;;2.03;1.20;;;30.70;12.60;;;;;;5110496;28;20024;-62
2023/08/02 09:48:57;;;;;;;1.67;0.90;;;30.50;12.00;;;;;;5089060;28;20737;-62
2023/08/02 09:51:38;;;;;;;3.92;1.20;;;30.30;12.50;;;;;;5110681;28;20027;-62
2023/08/02 09:54:03;;;;;;;2.13;1.05;;;29.90;12.30;;;;;;5086835;28;20039;-62
2023/08/02 09:56:30;;;;;;;4.53;1.13;;;29.50;12.90;;;;;;5109921;28;20023;-62
2023/08/02 09:58:57;;;;;;;2.33;1.00;;;29.30;13.60;;;;;;5089041;28;20028;-61
2023/08/02 10:01:24;;;;;;;2.63;1.00;;;28.80;13.30;;;;;;5110045;28;20491;-62
2023/08/02 10:03:55;;;;;;;2.03;1.08;;;28.60;13.80;;;;;;5088777;28;20031;-62
2023/08/02 10:06:23;;;;;;;2.50;0.98;;;28.50;14.20;;;;;;5070155;28;20035;-62
2023/08/02 10:08:51;;;;;;;2.85;0.90;;;28.50;14.40;;;;;;5090716;28;20028;-61
2023/08/02 10:11:17;;;;;;;2.67;1.02;;;28.60;14.40;;;;;;5110079;28;20034;-62
2023/08/02 10:13:44;;;;;;;6.18;1.40;;;28.40;14.60;;;;;;5088909;28;20278;-61
2023/08/02 10:16:11;;;;;;;2.92;1.42;;;28.30;14.90;;;;;;5109979;28;20028;-61
2023/08/02 10:18:37;;;;;;;3.80;1.50;;;28.30;14.80;;;;;;5088714;28;20032;-61
2023/08/02 10:21:04;;;;;;;2.03;0.90;;;28.10;15.10;;;;;;5109715;28;20491;-61
2023/08/02 10:23:30;;;;;;;2.22;1.40;;;27.80;15.60;;;;;;5088510;28;20024;-61
2023/08/02 10:25:56;;;;;;;3.05;1.20;;;27.70;15.60;;;;;;5108981;28;20032;-62
2023/08/02 10:28:22;;;;;;;2.10;1.00;;;27.60;15.90;;;;;;5088444;28;20531;-61
2023/08/02 10:30:48;;;;;;;2.95;1.15;;;27.60;16.20;;;;;;5109024;28;20432;-61
2023/08/02 10:33:14;;;;;;;2.90;1.10;;;27.50;16.80;;;;;;5088546;28;20028;-58
2023/08/02 10:36:04;;;;;;;2.22;1.23;;;27.40;17.20;;;;;;5107099;28;20035;-61
2023/08/02 10:38:38;;;;;;;3.13;1.05;;;27.00;17.90;;;;;;5081195;28;20395;-61
2023/08/02 10:41:15;;;;;;;4.65;1.38;;;26.80;19.10;;;;;;5109097;28;20032;-61
2023/08/02 10:43:53;;;;;;;3.08;1.10;;;26.60;18.30;;;;;;5082823;28;20024;-61
2023/08/02 10:46:24;;;;;;;2.33;0.98;;;26.80;19.80;;;;;;5109062;28;20058;-61
2023/08/02 10:48:51;;;;;;;1.52;0.95;;;26.80;19.30;;;;;;5083749;28;20028;-61
2023/08/02 10:51:33;;;;;;;2.30;1.00;;;26.60;19.70;;;;;;5109409;28;20391;-61
2023/08/02 10:54:22;;;;;;;1.45;1.10;;;26.50;19.80;;;;;;5087867;28;20127;-62
2023/08/02 10:56:53;;;;;;;7.10;1.40;;;26.40;20.10;;;;;;5108994;28;20020;-61
2023/08/02 10:59:25;;;;;;;2.15;1.17;;;26.30;20.20;;;;;;5069236;28;20020;-61
2023/08/02 11:01:56;;;;;;;4.43;1.20;;;26.30;20.40;;;;;;5108126;28;20368;-61
2023/08/02 11:04:23;;;;;;;3.65;1.00;;;26.50;20.60;;;;;;5069094;28;20440;-61
2023/08/02 11:06:49;;;;;;;2.28;0.93;;;26.60;20.60;;;;;;5108271;28;20135;-61
2023/08/02 11:09:14;;;;;;;2.90;1.05;;;26.50;20.70;;;;;;5087951;28;20042;-61
2023/08/02 11:11:39;;;;;;;2.70;0.95;;;26.40;21.20;;;;;;5108907;28;20035;-62
2023/08/02 11:14:05;;;;;;;1.25;1.00;;;26.40;21.20;;;;;;5086278;28;20690;-62
2023/08/02 11:16:38;;;;;;;2.67;0.90;;;26.60;21.30;;;;;;5108855;28;20114;-62
2023/08/02 11:19:10;;;;;;;2.15;0.90;;;26.80;21.20;;;;;;5085262;28;20028;-61
2023/08/02 11:21:51;;;;;;;3.50;1.48;;;26.80;20.90;;;;;;5068995;28;20040;-62
2023/08/02 11:24:16;;;;;;;2.28;1.10;;;26.50;21.30;;;;;;5087154;28;20027;-62
2023/08/02 11:26:42;;;;;;;3.00;1.70;;;26.50;21.40;;;;;;5108610;28;20655;-62
2023/08/02 11:29:08;;;;;;;1.08;0.98;;;26.50;21.60;;;;;;5087370;28;20047;-62
2023/08/02 11:31:33;;;;;;;1.50;0.95;;;26.70;21.80;;;;;;5108588;28;20151;-62
2023/08/02 11:33:59;;;;;;;1.55;1.15;;;26.80;21.50;;;;;;5091539;28;20498;-62
2023/08/02 11:36:24;;;;;;;2.53;1.27;;;26.80;21.30;;;;;;5107861;28;20019;-62
2023/08/02 11:38:50;;;;;;;5.80;1.23;;;26.70;21.50;;;;;;5092845;28;20034;-62
2023/08/02 11:41:21;;;;;;;4.30;1.45;;;26.60;21.60;;;;;;5115433;28;20019;-63
2023/08/02 11:43:48;;;;;;;2.28;1.42;;;26.30;22.10;;;;;;5093829;27;20498;-52
2023/08/02 11:46:21;;;;;;;2.53;1.40;;;26.10;22.20;;;;;;5115234;28;20035;-53
2023/08/02 11:48:50;;;;;;;1.85;1.23;;;26.00;22.40;;;;;;5087294;28;20487;-56
2023/08/02 11:51:18;;;;;;;2.15;1.30;;;25.90;22.50;;;;;;5095665;28;20017;-53
2023/08/02 11:53:51;;;;;;;1.92;1.30;;;25.80;22.80;;;;;;5108066;28;20032;-49
2023/08/02 11:56:17;;;;;;;1.85;1.05;;;25.80;23.10;;;;;;5095379;28;20024;-54
2023/08/02 11:58:44;;;;;;;1.10;1.00;;;26.00;23.10;;;;;;5108500;28;20103;-52
2023/08/02 12:01:11;;;;;;;2.88;1.50;;;26.00;23.30;;;;;;5110454;28;20111;-53
2023/08/02 12:03:36;;;;;;;1.70;1.13;;;26.10;23.30;;;;;;5093891;28;20030;-56
2023/08/02 12:06:02;;;;;;;4.10;1.25;;;26.20;23.50;;;;;;5095387;28;20036;-53
2023/08/02 12:08:27;;;;;;;2.22;1.50;;;26.20;23.70;;;;;;5110042;28;20711;-53
2023/08/02 12:10:53;;;;;;;3.55;1.90;;;25.90;23.30;;;;;;5095452;28;20438;-49
2023/08/02 12:13:20;;;;;;;1.48;1.38;;;25.80;23.70;;;;;;5112215;27;20024;-53
2023/08/02 12:15:58;;;;;;;3.88;1.60;;;25.70;24.30;;;;;;5093179;28;20027;-55
2023/08/02 12:18:24;;;;;;;2.58;1.55;;;25.80;24.30;;;;;;5115017;28;20032;-50
2023/08/02 12:20:49;;;;;;;1.75;1.38;;;25.90;24.00;;;;;;5092080;28;20085;-54
2023/08/02 12:23:32;;;;;;;6.07;1.60;;;25.90;24.10;;;;;;5114454;28;20036;-51
2023/08/02 12:25:58;;;;;;;4.63;1.60;;;25.80;24.80;;;;;;5091468;27;20387;-55
2023/08/02 12:28:23;;;;;;;2.45;1.48;;;25.80;24.30;;;;;;5094926;28;20035;-52
2023/08/02 12:31:03;;;;;;;3.50;1.70;;;25.80;24.30;;;;;;5109011;28;20111;-53
2023/08/02 12:33:29;;;;;;;4.80;1.70;;;25.80;24.80;;;;;;5093812;28;20102;-55
2023/08/02 12:35:55;;;;;;;2.33;1.42;;;25.70;24.70;;;;;;5109047;27;20030;-52
2023/08/02 12:38:20;;;;;;;4.07;1.73;;;25.60;24.80;;;;;;5093360;28;20089;-50
2023/08/02 12:40:46;;;;;;;4.05;1.88;;;25.60;25.00;;;;;;5106675;28;20024;-53
2023/08/02 12:43:12;;;;;;;1.80;1.50;;;25.80;25.10;;;;;;5104535;28;20024;-53
2023/08/02 12:45:37;;;;;;;3.53;2.13;;;26.10;25.20;;;;;;5114701;27;20044;-52